sensor_id;sensor_type;location;lat;lon;timestamp;temperature;humidity
6178;DHT22;3122;48.208;11.174;2023-03-29T00:00:32;3.00;1.00
6178;DHT22;3122;48.208;11.174;2023-03-29T00:05:37;3.30;1.00
6178;DHT22;3122;48.208;11.174;2023-03-29T00:10:40;3.60;1.00
6178;DHT22;3122;48.208;11.174;2023-03-29T00:15:41;3.70;1.00
6178;DHT22;3122;48.208;11.174;2023-03-29T00:20:42;3.70;1.00
6178;DHT22;3122;48.208;11.174;2023-03-29T00:25:43;4.00;1.00
6178;DHT22;3122;48.208;11.174;2023-03-29T00:30:44;4.20;1.00
6178;DHT22;3122;48.208;11.174;2023-03-29T00:35:51;4.20;1.00
6178;DHT22;3122;48.208;11.174;2023-03-29T00:40:52;4.10;1.00
6178;DHT22;3122;48.208;11.174;2023-03-29T00:45:53;4.00;1.00
6178;DHT22;3122;48.208;11.174;2023-03-29T00:50:59;4.00;1.00
6178;DHT22;3122;48.208;11.174;2023-03-29T00:56:11;3.90;1.00
6178;DHT22;3122;48.208;11.174;2023-03-29T01:01:20;3.80;1.00
6178;DHT22;3122;48.208;11.174;2023-03-29T01:06:23;3.70;1.00
6178;DHT22;3122;48.208;11.174;2023-03-29T01:11:38;3.70;1.00
6178;DHT22;3122;48.208;11.174;2023-03-29T01:16:41;3.60;1.00
6178;DHT22;3122;48.208;11.174;2023-03-29T01:21:48;3.40;1.00
6178;DHT22;3122;48.208;11.174;2023-03-29T01:27:13;3.40;1.00
6178;DHT22;3122;48.208;11.174;2023-03-29T01:32:21;3.40;1.00
6178;DHT22;3122;48.208;11.174;2023-03-29T01:37:32;3.30;1.00
6178;DHT22;3122;48.208;11.174;2023-03-29T01:48:12;3.30;1.00
6178;DHT22;3122;48.208;11.174;2023-03-29T01:54:03;3.30;1.00
6178;DHT22;3122;48.208;11.174;2023-03-29T01:58:59;3.20;1.00
6178;DHT22;3122;48.208;11.174;2023-03-29T02:04:03;3.20;1.00
6178;DHT22;3122;48.208;11.174;2023-03-29T02:09:06;3.20;1.00
6178;DHT22;3122;48.208;11.174;2023-03-29T02:14:07;3.20;1.00
6178;DHT22;3122;48.208;11.174;2023-03-29T02:19:09;3.20;1.00
6178;DHT22;3122;48.208;11.174;2023-03-29T02:24:11;3.10;1.00
6178;DHT22;3122;48.208;11.174;2023-03-29T02:29:13;3.10;1.00
6178;DHT22;3122;48.208;11.174;2023-03-29T02:34:35;3.10;1.00
6178;DHT22;3122;48.208;11.174;2023-03-29T02:39:38;3.10;1.00
6178;DHT22;3122;48.208;11.174;2023-03-29T02:44:41;3.10;1.00
6178;DHT22;3122;48.208;11.174;2023-03-29T02:49:43;3.10;1.00
6178;DHT22;3122;48.208;11.174;2023-03-29T02:54:45;3.10;1.00
6178;DHT22;3122;48.208;11.174;2023-03-29T02:59:47;3.10;1.00
6178;DHT22;3122;48.208;11.174;2023-03-29T03:04:48;3.00;1.00
6178;DHT22;3122;48.208;11.174;2023-03-29T03:09:49;3.00;1.00
6178;DHT22;3122;48.208;11.174;2023-03-29T03:14:49;3.00;1.00
6178;DHT22;3122;48.208;11.174;2023-03-29T03:19:50;3.00;1.00
6178;DHT22;3122;48.208;11.174;2023-03-29T03:24:52;2.90;1.00
6178;DHT22;3122;48.208;11.174;2023-03-29T03:29:52;2.90;1.00
6178;DHT22;3122;48.208;11.174;2023-03-29T03:34:53;2.90;1.00
6178;DHT22;3122;48.208;11.174;2023-03-29T03:39:54;3.00;1.00
6178;DHT22;3122;48.208;11.174;2023-03-29T03:44:55;3.00;1.00
6178;DHT22;3122;48.208;11.174;2023-03-29T03:49:55;3.00;1.00
6178;DHT22;3122;48.208;11.174;2023-03-29T03:54:56;3.00;1.00
6178;DHT22;3122;48.208;11.174;2023-03-29T03:59:57;3.10;1.00
6178;DHT22;3122;48.208;11.174;2023-03-29T04:04:58;3.30;1.00
6178;DHT22;3122;48.208;11.174;2023-03-29T04:10:03;3.50;1.00
6178;DHT22;3122;48.208;11.174;2023-03-29T04:15:05;3.50;1.00
6178;DHT22;3122;48.208;11.174;2023-03-29T04:20:06;3.60;1.00
6178;DHT22;3122;48.208;11.174;2023-03-29T04:25:14;3.70;1.00
6178;DHT22;3122;48.208;11.174;2023-03-29T04:30:14;4.10;1.00
6178;DHT22;3122;48.208;11.174;2023-03-29T04:35:16;4.40;1.00
6178;DHT22;3122;48.208;11.174;2023-03-29T04:40:17;4.60;1.00
6178;DHT22;3122;48.208;11.174;2023-03-29T04:45:18;4.80;1.00
6178;DHT22;3122;48.208;11.174;2023-03-29T04:50:19;4.90;1.00
6178;DHT22;3122;48.208;11.174;2023-03-29T04:55:20;4.90;1.00
6178;DHT22;3122;48.208;11.174;2023-03-29T05:00:21;5.00;1.00
6178;DHT22;3122;48.208;11.174;2023-03-29T05:05:26;5.10;1.00
6178;DHT22;3122;48.208;11.174;2023-03-29T05:10:26;5.20;1.00
6178;DHT22;3122;48.208;11.174;2023-03-29T05:15:27;5.20;1.00
6178;DHT22;3122;48.208;11.174;2023-03-29T05:20:28;5.20;1.00
6178;DHT22;3122;48.208;11.174;2023-03-29T05:25:29;5.20;1.00
6178;DHT22;3122;48.208;11.174;2023-03-29T05:30:29;5.30;1.00
6178;DHT22;3122;48.208;11.174;2023-03-29T05:35:30;5.40;1.00
6178;DHT22;3122;48.208;11.174;2023-03-29T05:40:31;5.50;1.00
6178;DHT22;3122;48.208;11.174;2023-03-29T05:45:32;5.40;1.00
6178;DHT22;3122;48.208;11.174;2023-03-29T05:50:33;5.50;1.00
6178;DHT22;3122;48.208;11.174;2023-03-29T05:55:34;5.50;1.00
6178;DHT22;3122;48.208;11.174;2023-03-29T06:00:35;5.60;1.00
6178;DHT22;3122;48.208;11.174;2023-03-29T06:05:39;5.50;1.00
6178;DHT22;3122;48.208;11.174;2023-03-29T06:10:41;5.50;1.00
6178;DHT22;3122;48.208;11.174;2023-03-29T06:15:41;5.60;1.00
6178;DHT22;3122;48.208;11.174;2023-03-29T06:20:42;5.70;1.00
6178;DHT22;3122;48.208;11.174;2023-03-29T06:25:43;5.70;1.00
6178;DHT22;3122;48.208;11.174;2023-03-29T06:30:44;5.90;1.00
6178;DHT22;3122;48.208;11.174;2023-03-29T06:35:46;6.00;1.00
6178;DHT22;3122;48.208;11.174;2023-03-29T06:40:47;6.20;1.00
6178;DHT22;3122;48.208;11.174;2023-03-29T06:45:48;6.40;1.00
6178;DHT22;3122;48.208;11.174;2023-03-29T06:50:49;6.60;1.00
6178;DHT22;3122;48.208;11.174;2023-03-29T06:55:50;6.80;1.00
6178;DHT22;3122;48.208;11.174;2023-03-29T07:00:51;7.00;1.00
6178;DHT22;3122;48.208;11.174;2023-03-29T07:05:53;7.10;1.00
6178;DHT22;3122;48.208;11.174;2023-03-29T07:11:00;7.20;1.00
6178;DHT22;3122;48.208;11.174;2023-03-29T07:16:02;7.20;1.00
6178;DHT22;3122;48.208;11.174;2023-03-29T07:21:03;7.30;1.00
6178;DHT22;3122;48.208;11.174;2023-03-29T07:26:05;7.40;1.00
6178;DHT22;3122;48.208;11.174;2023-03-29T07:31:09;7.50;1.00
6178;DHT22;3122;48.208;11.174;2023-03-29T07:36:10;7.60;1.00
6178;DHT22;3122;48.208;11.174;2023-03-29T07:41:11;7.60;1.00
6178;DHT22;3122;48.208;11.174;2023-03-29T07:46:12;7.60;1.00
6178;DHT22;3122;48.208;11.174;2023-03-29T07:51:14;7.70;1.00
6178;DHT22;3122;48.208;11.174;2023-03-29T07:56:15;7.80;1.00
6178;DHT22;3122;48.208;11.174;2023-03-29T08:01:16;7.90;1.00
6178;DHT22;3122;48.208;11.174;2023-03-29T08:06:18;7.80;1.00
6178;DHT22;3122;48.208;11.174;2023-03-29T08:11:19;7.90;1.00
6178;DHT22;3122;48.208;11.174;2023-03-29T08:16:19;7.90;1.00
6178;DHT22;3122;48.208;11.174;2023-03-29T08:21:20;7.90;1.00
6178;DHT22;3122;48.208;11.174;2023-03-29T08:26:20;8.00;1.00
6178;DHT22;3122;48.208;11.174;2023-03-29T08:31:21;8.10;1.00
6178;DHT22;3122;48.208;11.174;2023-03-29T08:36:22;8.30;1.00
6178;DHT22;3122;48.208;11.174;2023-03-29T08:47:17;8.90;1.00
6178;DHT22;3122;48.208;11.174;2023-03-29T08:57:44;9.20;1.00
6178;DHT22;3122;48.208;11.174;2023-03-29T09:02:46;9.30;1.00
6178;DHT22;3122;48.208;11.174;2023-03-29T09:07:48;9.30;1.00
6178;DHT22;3122;48.208;11.174;2023-03-29T09:18:00;9.30;1.00
6178;DHT22;3122;48.208;11.174;2023-03-29T09:28:50;9.50;1.00
6178;DHT22;3122;48.208;11.174;2023-03-29T09:33:58;9.50;1.00
6178;DHT22;3122;48.208;11.174;2023-03-29T09:38:59;9.70;1.00
6178;DHT22;3122;48.208;11.174;2023-03-29T09:44:04;9.80;1.00
6178;DHT22;3122;48.208;11.174;2023-03-29T09:49:11;9.80;1.00
6178;DHT22;3122;48.208;11.174;2023-03-29T09:54:14;9.90;1.00
6178;DHT22;3122;48.208;11.174;2023-03-29T09:59:14;9.90;1.00
6178;DHT22;3122;48.208;11.174;2023-03-29T10:04:15;10.00;1.00
6178;DHT22;3122;48.208;11.174;2023-03-29T10:09:20;10.00;1.00
6178;DHT22;3122;48.208;11.174;2023-03-29T10:14:34;10.20;1.00
6178;DHT22;3122;48.208;11.174;2023-03-29T10:19:36;10.20;1.00
6178;DHT22;3122;48.208;11.174;2023-03-29T10:24:36;10.40;1.00
6178;DHT22;3122;48.208;11.174;2023-03-29T10:29:39;10.60;1.00
6178;DHT22;3122;48.208;11.174;2023-03-29T10:34:42;10.70;1.00
6178;DHT22;3122;48.208;11.174;2023-03-29T10:39:45;10.80;1.00
6178;DHT22;3122;48.208;11.174;2023-03-29T10:44:55;11.00;1.00
6178;DHT22;3122;48.208;11.174;2023-03-29T10:49:56;11.00;1.00
6178;DHT22;3122;48.208;11.174;2023-03-29T10:54:58;11.20;1.00
6178;DHT22;3122;48.208;11.174;2023-03-29T11:00:16;11.40;1.00
6178;DHT22;3122;48.208;11.174;2023-03-29T11:21:11;11.70;1.00
6178;DHT22;3122;48.208;11.174;2023-03-29T11:26:26;11.60;1.00
6178;DHT22;3122;48.208;11.174;2023-03-29T11:31:42;11.80;1.00
6178;DHT22;3122;48.208;11.174;2023-03-29T11:37:14;11.90;1.00
6178;DHT22;3122;48.208;11.174;2023-03-29T11:42:25;11.60;1.00
6178;DHT22;3122;48.208;11.174;2023-03-29T11:47:31;11.70;1.00
6178;DHT22;3122;48.208;11.174;2023-03-29T11:52:48;11.60;1.00
6178;DHT22;3122;48.208;11.174;2023-03-29T11:58:16;11.70;1.00
6178;DHT22;3122;48.208;11.174;2023-03-29T12:09:01;11.80;1.00
6178;DHT22;3122;48.208;11.174;2023-03-29T12:14:15;11.80;1.00
6178;DHT22;3122;48.208;11.174;2023-03-29T12:24:25;11.60;1.00
6178;DHT22;3122;48.208;11.174;2023-03-29T12:40:46;11.80;1.00
6178;DHT22;3122;48.208;11.174;2023-03-29T12:45:47;12.10;1.00
6178;DHT22;3122;48.208;11.174;2023-03-29T12:51:17;12.20;1.00
6178;DHT22;3122;48.208;11.174;2023-03-29T12:56:21;12.50;1.00
6178;DHT22;3122;48.208;11.174;2023-03-29T13:01:31;12.70;1.00
6178;DHT22;3122;48.208;11.174;2023-03-29T13:06:54;12.80;1.00
6178;DHT22;3122;48.208;11.174;2023-03-29T13:28:28;13.60;1.00
6178;DHT22;3122;48.208;11.174;2023-03-29T13:33:56;13.60;1.00
6178;DHT22;3122;48.208;11.174;2023-03-29T13:39:03;13.50;1.00
6178;DHT22;3122;48.208;11.174;2023-03-29T13:44:24;13.60;1.00
6178;DHT22;3122;48.208;11.174;2023-03-29T13:49:28;13.50;1.00
6178;DHT22;3122;48.208;11.174;2023-03-29T13:54:35;13.40;1.00
6178;DHT22;3122;48.208;11.174;2023-03-29T13:59:58;13.10;1.00
6178;DHT22;3122;48.208;11.174;2023-03-29T14:05:00;13.00;1.00
6178;DHT22;3122;48.208;11.174;2023-03-29T14:10:03;13.00;1.00
6178;DHT22;3122;48.208;11.174;2023-03-29T14:15:05;13.40;1.00
6178;DHT22;3122;48.208;11.174;2023-03-29T14:20:07;13.60;1.00
6178;DHT22;3122;48.208;11.174;2023-03-29T14:25:16;13.60;1.00
6178;DHT22;3122;48.208;11.174;2023-03-29T14:30:27;13.50;1.00
6178;DHT22;3122;48.208;11.174;2023-03-29T14:35:30;13.20;1.00
6178;DHT22;3122;48.208;11.174;2023-03-29T14:40:32;13.00;1.00
6178;DHT22;3122;48.208;11.174;2023-03-29T14:45:34;12.90;1.00
6178;DHT22;3122;48.208;11.174;2023-03-29T14:50:35;12.70;1.00
6178;DHT22;3122;48.208;11.174;2023-03-29T14:55:37;12.60;1.00
6178;DHT22;3122;48.208;11.174;2023-03-29T15:00:39;12.50;1.00
6178;DHT22;3122;48.208;11.174;2023-03-29T15:05:49;11.90;1.00
6178;DHT22;3122;48.208;11.174;2023-03-29T15:10:50;11.20;1.00
6178;DHT22;3122;48.208;11.174;2023-03-29T15:15:54;10.80;1.00
6178;DHT22;3122;48.208;11.174;2023-03-29T15:20:56;10.70;1.00
6178;DHT22;3122;48.208;11.174;2023-03-29T15:26:11;10.60;1.00
6178;DHT22;3122;48.208;11.174;2023-03-29T15:31:16;10.60;1.00
6178;DHT22;3122;48.208;11.174;2023-03-29T15:36:17;10.60;1.00
6178;DHT22;3122;48.208;11.174;2023-03-29T15:41:18;10.60;1.00
6178;DHT22;3122;48.208;11.174;2023-03-29T15:46:18;10.60;1.00
6178;DHT22;3122;48.208;11.174;2023-03-29T15:51:19;10.60;1.00
6178;DHT22;3122;48.208;11.174;2023-03-29T15:56:20;10.70;1.00
6178;DHT22;3122;48.208;11.174;2023-03-29T16:01:26;10.70;1.00
6178;DHT22;3122;48.208;11.174;2023-03-29T16:06:37;10.80;1.00
6178;DHT22;3122;48.208;11.174;2023-03-29T16:11:39;10.80;1.00
6178;DHT22;3122;48.208;11.174;2023-03-29T16:16:40;10.80;1.00
6178;DHT22;3122;48.208;11.174;2023-03-29T16:21:41;10.80;1.00
6178;DHT22;3122;48.208;11.174;2023-03-29T16:26:42;10.80;1.00
6178;DHT22;3122;48.208;11.174;2023-03-29T16:31:44;10.80;1.00
6178;DHT22;3122;48.208;11.174;2023-03-29T16:36:45;10.60;1.00
6178;DHT22;3122;48.208;11.174;2023-03-29T16:41:46;10.50;1.00
6178;DHT22;3122;48.208;11.174;2023-03-29T16:46:49;10.50;1.00
6178;DHT22;3122;48.208;11.174;2023-03-29T16:51:50;10.40;1.00
6178;DHT22;3122;48.208;11.174;2023-03-29T16:56:51;10.30;1.00
6178;DHT22;3122;48.208;11.174;2023-03-29T17:01:51;10.30;1.00
6178;DHT22;3122;48.208;11.174;2023-03-29T17:06:52;10.20;1.00
6178;DHT22;3122;48.208;11.174;2023-03-29T17:11:53;10.20;1.00
6178;DHT22;3122;48.208;11.174;2023-03-29T17:16:53;10.20;1.00
6178;DHT22;3122;48.208;11.174;2023-03-29T17:21:54;10.20;1.00
6178;DHT22;3122;48.208;11.174;2023-03-29T17:26:55;10.10;1.00
6178;DHT22;3122;48.208;11.174;2023-03-29T17:31:55;10.00;1.00
6178;DHT22;3122;48.208;11.174;2023-03-29T17:36:56;9.90;1.00
6178;DHT22;3122;48.208;11.174;2023-03-29T17:41:56;9.90;1.00
6178;DHT22;3122;48.208;11.174;2023-03-29T17:46:57;9.90;1.00
6178;DHT22;3122;48.208;11.174;2023-03-29T17:51:58;9.90;1.00
6178;DHT22;3122;48.208;11.174;2023-03-29T17:56:59;9.80;1.00
6178;DHT22;3122;48.208;11.174;2023-03-29T18:01:59;9.70;1.00
6178;DHT22;3122;48.208;11.174;2023-03-29T18:07:01;9.60;1.00
6178;DHT22;3122;48.208;11.174;2023-03-29T18:12:02;9.60;1.00
6178;DHT22;3122;48.208;11.174;2023-03-29T18:17:02;9.50;1.00
6178;DHT22;3122;48.208;11.174;2023-03-29T18:22:03;9.50;1.00
6178;DHT22;3122;48.208;11.174;2023-03-29T18:27:05;9.40;1.00
6178;DHT22;3122;48.208;11.174;2023-03-29T18:32:05;9.30;1.00
6178;DHT22;3122;48.208;11.174;2023-03-29T18:37:06;9.20;1.00
6178;DHT22;3122;48.208;11.174;2023-03-29T18:42:13;9.10;1.00
6178;DHT22;3122;48.208;11.174;2023-03-29T18:47:14;9.00;1.00
6178;DHT22;3122;48.208;11.174;2023-03-29T18:52:14;9.00;1.00
6178;DHT22;3122;48.208;11.174;2023-03-29T18:57:15;9.00;1.00
6178;DHT22;3122;48.208;11.174;2023-03-29T19:02:16;9.00;1.00
6178;DHT22;3122;48.208;11.174;2023-03-29T19:07:16;9.10;1.00
6178;DHT22;3122;48.208;11.174;2023-03-29T19:12:17;9.10;1.00
6178;DHT22;3122;48.208;11.174;2023-03-29T19:17:17;9.00;1.00
6178;DHT22;3122;48.208;11.174;2023-03-29T19:22:18;8.90;1.00
6178;DHT22;3122;48.208;11.174;2023-03-29T19:27:18;8.80;1.00
6178;DHT22;3122;48.208;11.174;2023-03-29T19:32:19;8.80;1.00
6178;DHT22;3122;48.208;11.174;2023-03-29T19:37:20;9.00;1.00
6178;DHT22;3122;48.208;11.174;2023-03-29T19:42:20;9.20;1.00
6178;DHT22;3122;48.208;11.174;2023-03-29T19:47:21;9.20;1.00
6178;DHT22;3122;48.208;11.174;2023-03-29T19:52:22;9.20;1.00
6178;DHT22;3122;48.208;11.174;2023-03-29T19:57:23;9.30;1.00
6178;DHT22;3122;48.208;11.174;2023-03-29T20:02:24;9.40;1.00
6178;DHT22;3122;48.208;11.174;2023-03-29T20:07:25;9.50;1.00
6178;DHT22;3122;48.208;11.174;2023-03-29T20:12:25;9.60;1.00
6178;DHT22;3122;48.208;11.174;2023-03-29T20:17:26;9.70;1.00
6178;DHT22;3122;48.208;11.174;2023-03-29T20:22:27;9.70;1.00
6178;DHT22;3122;48.208;11.174;2023-03-29T20:27:30;9.50;1.00
6178;DHT22;3122;48.208;11.174;2023-03-29T20:32:31;9.40;1.00
6178;DHT22;3122;48.208;11.174;2023-03-29T20:37:31;9.30;1.00
6178;DHT22;3122;48.208;11.174;2023-03-29T20:42:32;9.20;1.00
6178;DHT22;3122;48.208;11.174;2023-03-29T20:47:33;9.20;1.00
6178;DHT22;3122;48.208;11.174;2023-03-29T20:52:41;9.10;1.00
6178;DHT22;3122;48.208;11.174;2023-03-29T20:57:41;9.10;1.00
6178;DHT22;3122;48.208;11.174;2023-03-29T21:02:42;9.10;1.00
6178;DHT22;3122;48.208;11.174;2023-03-29T21:07:43;9.10;1.00
6178;DHT22;3122;48.208;11.174;2023-03-29T21:12:44;9.00;1.00
6178;DHT22;3122;48.208;11.174;2023-03-29T21:17:45;9.10;1.00
6178;DHT22;3122;48.208;11.174;2023-03-29T21:22:46;9.10;1.00
6178;DHT22;3122;48.208;11.174;2023-03-29T21:27:47;9.00;1.00
6178;DHT22;3122;48.208;11.174;2023-03-29T21:32:48;8.90;1.00
6178;DHT22;3122;48.208;11.174;2023-03-29T21:37:48;8.80;1.00
6178;DHT22;3122;48.208;11.174;2023-03-29T21:42:50;8.80;1.00
6178;DHT22;3122;48.208;11.174;2023-03-29T21:47:50;8.80;1.00
6178;DHT22;3122;48.208;11.174;2023-03-29T21:52:51;8.80;1.00
6178;DHT22;3122;48.208;11.174;2023-03-29T21:57:52;9.00;1.00
6178;DHT22;3122;48.208;11.174;2023-03-29T22:02:52;9.00;1.00
6178;DHT22;3122;48.208;11.174;2023-03-29T22:07:53;9.20;1.00
6178;DHT22;3122;48.208;11.174;2023-03-29T22:12:53;9.50;1.00
6178;DHT22;3122;48.208;11.174;2023-03-29T22:17:56;9.70;1.00
6178;DHT22;3122;48.208;11.174;2023-03-29T22:22:57;9.90;1.00
6178;DHT22;3122;48.208;11.174;2023-03-29T22:27:58;10.00;1.00
6178;DHT22;3122;48.208;11.174;2023-03-29T22:32:58;10.00;1.00
6178;DHT22;3122;48.208;11.174;2023-03-29T22:37:59;10.10;1.00
6178;DHT22;3122;48.208;11.174;2023-03-29T22:43:00;10.20;1.00
6178;DHT22;3122;48.208;11.174;2023-03-29T22:48:00;10.10;1.00
6178;DHT22;3122;48.208;11.174;2023-03-29T22:53:01;10.30;1.00
6178;DHT22;3122;48.208;11.174;2023-03-29T22:58:01;10.40;1.00
6178;DHT22;3122;48.208;11.174;2023-03-29T23:03:03;10.40;1.00
6178;DHT22;3122;48.208;11.174;2023-03-29T23:08:03;10.40;1.00
6178;DHT22;3122;48.208;11.174;2023-03-29T23:13:06;10.40;1.00
6178;DHT22;3122;48.208;11.174;2023-03-29T23:18:10;10.20;1.00
6178;DHT22;3122;48.208;11.174;2023-03-29T23:23:15;10.20;1.00
6178;DHT22;3122;48.208;11.174;2023-03-29T23:28:18;10.00;1.00
6178;DHT22;3122;48.208;11.174;2023-03-29T23:33:21;9.90;1.00
6178;DHT22;3122;48.208;11.174;2023-03-29T23:38:22;9.80;1.00
6178;DHT22;3122;48.208;11.174;2023-03-29T23:43:34;9.90;1.00
6178;DHT22;3122;48.208;11.174;2023-03-29T23:48:35;9.90;1.00
6178;DHT22;3122;48.208;11.174;2023-03-29T23:53:36;9.90;1.00
6178;DHT22;3122;48.208;11.174;2023-03-29T23:58:37;9.90;1.00
